Time;durP1;ratioP1;P1;durP2;ratioP2;P2;SDS_P1;SDS_P2;PMS_P1;PMS_P2;Temp;Humidity;BMP_temperature;BMP_pressure;BME280_temperature;BME280_humidity;BME280_pressure;Samples;Min_cycle;Max_cycle;Signal;HPM_P1;HPM_P2
2022/07/20 00:00:51;;;;;;;7.25;2.97;;;;;;;22.95;43.22;96314.22;5052120;28;20032;-77
2022/07/20 00:03:17;;;;;;;4.82;3.00;;;;;;;22.95;43.06;96316.88;5057337;28;20403;-77
2022/07/20 00:05:43;;;;;;;6.65;3.47;;;;;;;22.77;44.26;96314.31;5074298;28;21707;-77
2022/07/20 00:08:10;;;;;;;6.35;3.33;;;;;;;22.70;44.28;96316.28;5062590;28;20039;-77
2022/07/20 00:13:21;;;;;;;8.18;3.22;;;;;;;22.55;45.44;96306.03;5069096;28;20059;-77
2022/07/20 00:15:47;;;;;;;6.22;3.30;;;;;;;22.47;45.75;96309.91;5066968;28;20060;-77
2022/07/20 00:18:13;;;;;;;6.13;3.08;;;;;;;22.45;45.89;96309.31;5043413;28;20701;-77
2022/07/20 00:20:39;;;;;;;8.20;3.38;;;;;;;22.44;45.79;96312.22;5069813;28;20028;-77
2022/07/20 00:23:06;;;;;;;7.63;3.47;;;;;;;22.48;45.95;96306.16;5068446;28;20056;-77
2022/07/20 00:25:32;;;;;;;6.32;3.28;;;;;;;22.43;45.98;96308.72;5069152;28;20457;-77
2022/07/20 00:27:58;;;;;;;9.15;3.80;;;;;;;22.44;46.16;96312.22;5051602;28;20037;-77
2022/07/20 00:30:24;;;;;;;7.47;3.63;;;;;;;22.44;45.98;96312.22;5051170;28;20508;-76
2022/07/20 00:32:49;;;;;;;7.35;3.50;;;;;;;22.39;46.22;96312.91;5069905;28;20037;-77
2022/07/20 00:35:16;;;;;;;9.75;3.47;;;;;;;22.44;46.03;96306.88;5051398;28;20094;-77
2022/07/20 00:37:43;;;;;;;7.95;3.17;;;;;;;22.33;46.56;96311.16;5076303;28;20077;-77
2022/07/20 00:40:11;;;;;;;5.70;3.22;;;;;;;22.36;46.36;96306.13;5041056;28;20040;-77
2022/07/20 00:42:38;;;;;;;5.50;2.67;;;;;;;22.32;46.44;96299.63;5069156;28;20078;-77
2022/07/20 00:45:06;;;;;;;6.95;3.08;;;;;;;22.37;46.00;96301.63;5069010;28;20082;-77
2022/07/20 00:47:31;;;;;;;6.88;3.10;;;;;;;22.39;46.04;96296.81;5058269;28;20028;-77
2022/07/20 00:49:57;;;;;;;9.98;3.08;;;;;;;22.38;46.08;96297.06;5039368;28;20036;-77
2022/07/20 00:52:23;;;;;;;8.70;2.95;;;;;;;22.39;46.29;96279.94;5051771;28;20044;-76
2022/07/20 00:54:50;;;;;;;5.28;2.78;;;;;;;22.28;46.66;96295.78;5034502;28;20429;-77
2022/07/20 00:57:16;;;;;;;6.43;2.75;;;;;;;22.22;47.04;96288.66;5050966;28;20699;-78
2022/07/20 00:59:42;;;;;;;4.90;2.70;;;;;;;22.22;47.03;96288.66;5065854;28;20047;-77
2022/07/20 01:02:08;;;;;;;6.80;2.70;;;;;;;22.10;47.55;96285.94;5059876;28;20036;-77
2022/07/20 01:04:33;;;;;;;7.38;2.75;;;;;;;22.07;47.78;96291.75;5045696;28;20036;-77
2022/07/20 01:07:00;;;;;;;7.55;2.97;;;;;;;22.04;47.99;96288.72;5071265;28;20064;-77
2022/07/20 01:09:26;;;;;;;6.95;2.47;;;;;;;21.96;48.38;96286.38;5047493;28;20029;-76
2022/07/20 01:11:52;;;;;;;7.75;2.70;;;;;;;21.97;48.49;96282.66;5050045;28;20445;-77
2022/07/20 01:14:18;;;;;;;6.18;3.03;;;;;;;21.98;48.57;96281.63;5068845;28;20043;-77
2022/07/20 01:16:44;;;;;;;9.15;2.80;;;;;;;21.96;48.60;96278.34;5055043;28;20493;-77
2022/07/20 01:19:09;;;;;;;5.82;2.85;;;;;;;21.98;48.82;96278.94;5045500;28;20039;-77
2022/07/20 01:21:40;;;;;;;5.25;2.67;;;;;;;21.92;49.15;96275.31;5068352;28;20028;-77
2022/07/20 01:24:13;;;;;;;5.05;2.70;;;;;;;21.85;49.79;96271.91;5068221;28;20024;-77
2022/07/20 01:26:39;;;;;;;;;;;;;;;21.91;49.33;96276.38;5034185;28;20166;-77
2022/07/20 01:29:06;;;;;;;6.22;2.38;;;;;;;21.82;49.97;96273.19;5033855;28;19916;-77
2022/07/20 01:31:32;;;;;;;6.70;2.75;;;;;;;21.76;50.14;96271.41;5047361;28;20033;-76
2022/07/20 01:33:58;;;;;;;5.57;2.53;;;;;;;21.73;50.19;96269.22;5061760;28;20034;-77
2022/07/20 01:36:24;;;;;;;6.40;2.63;;;;;;;21.66;50.84;96268.47;5051217;28;20024;-77
2022/07/20 01:38:49;;;;;;;6.68;2.88;;;;;;;21.53;51.07;96266.84;5075057;28;20384;-77
2022/07/20 01:41:15;;;;;;;5.60;3.42;;;;;;;21.45;51.74;96279.69;5068013;28;20028;-77
2022/07/20 01:43:41;;;;;;;6.22;2.60;;;;;;;21.40;51.73;96272.38;5050142;28;20059;-77
2022/07/20 01:46:06;;;;;;;6.70;2.92;;;;;;;21.31;52.43;96274.50;5049959;28;20032;-77
2022/07/20 01:48:32;;;;;;;5.55;2.60;;;;;;;21.28;52.40;96272.28;5047663;28;20031;-77
2022/07/20 01:50:58;;;;;;;5.53;3.10;;;;;;;21.31;52.39;96274.50;5050463;28;20032;-77
2022/07/20 01:53:23;;;;;;;6.90;3.17;;;;;;;21.16;53.17;96272.22;5068227;28;20397;-77
2022/07/20 01:55:51;;;;;;;8.43;2.78;;;;;;;21.17;52.87;96265.00;5033233;28;20613;-77
2022/07/20 01:58:17;;;;;;;7.10;3.25;;;;;;;21.05;53.19;96266.81;5049529;28;20124;-77
2022/07/20 02:00:43;;;;;;;5.53;3.03;;;;;;;21.00;53.67;96262.13;5068206;28;20107;-77
2022/07/20 02:03:08;;;;;;;5.47;2.65;;;;;;;20.99;53.67;96275.72;5070766;28;20068;-76
2022/07/20 02:05:34;;;;;;;5.55;2.80;;;;;;;20.95;53.97;96270.81;5067646;28;20059;-76
2022/07/20 02:07:59;;;;;;;5.85;2.70;;;;;;;20.90;54.40;96273.34;5074733;28;20535;-76
2022/07/20 02:10:25;;;;;;;8.20;3.65;;;;;;;20.90;54.55;96264.53;5069839;28;20505;-77
2022/07/20 02:12:51;;;;;;;5.18;3.05;;;;;;;20.90;54.24;96269.88;5035398;28;20060;-77
2022/07/20 02:18:06;;;;;;;10.35;6.05;;;;;;;20.79;54.83;96260.75;5055912;28;20436;-77
2022/07/20 02:20:33;;;;;;;7.95;3.53;;;;;;;20.79;54.92;96258.06;5054554;28;20469;-77
2022/07/20 02:22:59;;;;;;;5.82;2.70;;;;;;;20.74;55.04;96271.28;5069711;28;20029;-77
2022/07/20 02:25:24;;;;;;;9.32;3.20;;;;;;;20.74;55.16;96265.94;5052135;28;20039;-77
2022/07/20 02:27:50;;;;;;;4.88;2.80;;;;;;;20.71;55.33;96271.72;5052320;28;20463;-77
2022/07/20 02:30:15;;;;;;;7.60;2.72;;;;;;;20.67;56.15;96268.66;5052252;28;20181;-77
2022/07/20 02:32:41;;;;;;;5.35;2.60;;;;;;;20.61;56.71;96274.06;5034597;28;20119;-77
2022/07/20 02:35:07;;;;;;;8.07;3.35;;;;;;;20.49;58.43;96280.13;5066981;28;20036;-76
2022/07/20 02:37:33;;;;;;;4.93;2.40;;;;;;;20.51;57.45;96281.78;5036398;28;20032;-76
2022/07/20 02:39:58;;;;;;;7.25;2.92;;;;;;;20.48;58.34;96277.66;5076627;28;20530;-76
2022/07/20 02:42:24;;;;;;;8.80;3.58;;;;;;;20.43;56.50;96278.34;5051709;28;20024;-76
2022/07/20 02:44:50;;;;;;;5.60;2.72;;;;;;;20.45;56.13;96270.91;5035150;28;20048;-76
2022/07/20 02:47:15;;;;;;;7.72;3.00;;;;;;;20.37;56.30;96262.38;5073081;28;20028;-76
2022/07/20 02:49:41;;;;;;;7.30;2.65;;;;;;;20.36;56.21;96261.56;5050577;28;20145;-76
2022/07/20 02:52:07;;;;;;;6.40;3.10;;;;;;;20.36;56.35;96266.91;5060842;28;20036;-76
2022/07/20 02:54:32;;;;;;;6.30;2.60;;;;;;;20.39;56.44;96262.97;5068962;28;20024;-76
2022/07/20 02:56:58;;;;;;;5.32;2.92;;;;;;;20.32;56.90;96262.19;5050807;28;20442;-76
2022/07/20 02:59:24;;;;;;;6.38;3.03;;;;;;;20.28;57.26;96267.16;5067494;28;20150;-76
2022/07/20 03:01:51;;;;;;;12.23;3.50;;;;;;;20.22;57.72;96265.38;5083486;28;20501;-76
2022/07/20 03:04:17;;;;;;;9.25;2.80;;;;;;;20.17;58.04;96262.56;5069409;28;20443;-77
2022/07/20 03:06:42;;;;;;;5.85;3.08;;;;;;;20.14;58.26;96273.66;5048155;28;20032;-76
2022/07/20 03:09:09;;;;;;;5.05;2.70;;;;;;;20.14;58.50;96273.66;5057886;28;20089;-76
2022/07/20 03:11:35;;;;;;;7.45;3.35;;;;;;;20.15;58.72;96277.97;5068549;28;20444;-76
2022/07/20 03:14:00;;;;;;;6.60;3.00;;;;;;;20.10;58.92;96272.47;5076624;28;20021;-76
2022/07/20 03:16:26;;;;;;;6.78;3.20;;;;;;;20.14;59.13;96273.66;5073076;28;20060;-76
2022/07/20 03:18:52;;;;;;;5.78;3.50;;;;;;;20.13;58.97;96267.50;5063231;28;20458;-76
2022/07/20 03:21:17;;;;;;;5.50;2.83;;;;;;;20.11;59.12;96271.44;5060754;28;20032;-76
2022/07/20 03:23:43;;;;;;;6.53;2.60;;;;;;;20.14;59.37;96276.34;5073794;28;20549;-76
2022/07/20 03:26:09;;;;;;;7.63;2.72;;;;;;;20.15;59.79;96267.28;5057750;28;20040;-77
2022/07/20 03:28:34;;;;;;;6.13;3.47;;;;;;;20.10;60.00;96267.13;5074814;28;20115;-76
2022/07/20 03:31:00;;;;;;;5.78;2.97;;;;;;;19.99;60.67;96271.34;5043780;28;20037;-76
2022/07/20 03:33:25;;;;;;;8.32;3.17;;;;;;;19.95;61.09;96280.78;5060522;28;20067;-75
2022/07/20 03:35:51;;;;;;;10.48;3.33;;;;;;;19.92;61.94;96281.22;5066588;28;20560;-76
2022/07/20 03:38:17;;;;;;;5.50;2.85;;;;;;;19.97;61.32;96284.06;5070731;28;20082;-77
2022/07/20 03:40:43;;;;;;;4.13;2.60;;;;;;;19.96;61.43;96283.25;5080031;28;20033;-76
2022/07/20 03:43:08;;;;;;;6.40;2.97;;;;;;;20.01;61.18;96283.41;5069966;28;20044;-76
2022/07/20 03:45:34;;;;;;;8.13;2.97;;;;;;;19.98;61.38;96275.00;5064084;28;20561;-76
2022/07/20 03:48:00;;;;;;;4.80;2.88;;;;;;;20.00;63.08;96272.97;5053029;28;20036;-77
2022/07/20 03:50:25;;;;;;;5.68;3.20;;;;;;;19.90;64.12;96278.78;5052671;28;20533;-76
2022/07/20 03:52:51;;;;;;;7.78;3.03;;;;;;;19.88;64.12;96272.81;5081837;28;20078;-76
2022/07/20 03:55:17;;;;;;;7.50;3.22;;;;;;;19.96;62.88;96277.91;5048489;28;20752;-76
2022/07/20 03:57:43;;;;;;;7.40;3.50;;;;;;;19.89;64.21;96271.81;5038152;28;20037;-76
2022/07/20 04:00:09;;;;;;;11.07;4.25;;;;;;;19.88;63.63;96274.69;5068080;28;20046;-76
2022/07/20 04:02:35;;;;;;;8.63;3.20;;;;;;;19.95;62.57;96273.63;5063605;28;20065;-76
2022/07/20 04:05:00;;;;;;;7.85;3.03;;;;;;;19.93;62.71;96282.88;5066025;28;20040;-76
2022/07/20 04:07:26;;;;;;;6.05;2.90;;;;;;;19.91;63.04;96290.25;5082179;28;20378;-76
2022/07/20 04:09:52;;;;;;;7.22;3.28;;;;;;;19.88;63.78;96283.50;5062634;28;20029;-77
2022/07/20 04:12:20;;;;;;;6.10;2.95;;;;;;;19.80;64.78;96282.97;5058952;28;20033;-77
2022/07/20 04:14:49;;;;;;;7.55;2.85;;;;;;;19.84;64.66;96276.97;5059855;28;20044;-77
2022/07/20 04:17:16;;;;;;;7.90;3.60;;;;;;;19.90;64.54;96280.63;5064757;28;20093;-77
2022/07/20 04:19:42;;;;;;;6.13;3.08;;;;;;;19.97;63.74;96278.72;5059473;28;20032;-77
2022/07/20 04:22:08;;;;;;;7.65;3.20;;;;;;;20.06;64.74;96287.31;5076442;28;20046;-77
2022/07/20 04:24:34;;;;;;;8.10;3.05;;;;;;;19.86;66.33;96288.25;5055829;28;20044;-76
2022/07/20 04:27:00;;;;;;;7.55;2.97;;;;;;;20.01;64.23;96282.59;5061737;28;20040;-76
2022/07/20 04:29:26;;;;;;;8.15;2.85;;;;;;;20.02;64.18;96279.72;5078837;28;20028;-76
2022/07/20 04:31:52;;;;;;;7.78;3.15;;;;;;;20.04;64.57;96284.03;5078785;28;20055;-76
2022/07/20 04:34:18;;;;;;;5.78;3.20;;;;;;;20.03;65.76;96283.22;5079502;28;20684;-77
2022/07/20 04:36:44;;;;;;;7.75;3.00;;;;;;;20.08;65.74;96286.03;5058165;28;20032;-76
2022/07/20 04:39:09;;;;;;;6.70;3.58;;;;;;;20.08;65.77;96286.03;5041038;28;20353;-76
2022/07/20 04:41:35;;;;;;;8.40;3.38;;;;;;;20.18;65.69;96296.22;5062418;28;20443;-76
2022/07/20 04:44:01;;;;;;;5.95;3.40;;;;;;;20.17;65.61;96290.06;5047856;28;20024;-77
2022/07/20 04:46:28;;;;;;;5.18;2.72;;;;;;;20.20;65.47;96294.16;5032888;28;20040;-76
2022/07/20 04:48:54;;;;;;;7.78;3.40;;;;;;;20.14;66.11;96295.03;5028073;28;20043;-76
2022/07/20 04:51:20;;;;;;;5.60;3.40;;;;;;;19.97;68.34;96292.06;5079649;28;20114;-76
2022/07/20 04:53:46;;;;;;;5.95;3.17;;;;;;;19.97;68.63;96284.88;5053435;28;20763;-76
2022/07/20 04:56:12;;;;;;;9.30;3.70;;;;;;;20.12;69.04;96291.75;5066668;28;20047;-77
2022/07/20 04:58:38;;;;;;;6.03;3.30;;;;;;;20.22;69.61;96281.38;5076889;28;20036;-76
2022/07/20 05:01:03;;;;;;;7.78;3.75;;;;;;;20.34;69.53;96290.34;5071612;28;20040;-76
2022/07/20 05:03:29;;;;;;;7.38;3.03;;;;;;;20.55;69.07;96285.66;5044651;28;20036;-76
2022/07/20 05:05:54;;;;;;;7.20;2.90;;;;;;;20.37;69.40;96287.22;5031750;28;20040;-76
2022/07/20 05:08:20;;;;;;;10.65;3.00;;;;;;;20.31;71.54;96285.44;5065768;28;20044;-76
2022/07/20 05:10:46;;;;;;;8.30;3.25;;;;;;;20.49;72.60;96282.81;5066105;28;20032;-76
2022/07/20 05:13:12;;;;;;;8.00;3.47;;;;;;;20.57;72.14;96280.91;5076939;28;20032;-76
2022/07/20 05:15:37;;;;;;;7.70;2.90;;;;;;;20.87;68.49;96289.84;5056059;28;20081;-76
2022/07/20 05:18:03;;;;;;;10.20;3.85;;;;;;;21.07;66.74;96278.91;5057920;28;20025;-76
2022/07/20 05:20:29;;;;;;;8.05;3.65;;;;;;;21.25;66.85;96279.94;5045514;28;20033;-77
2022/07/20 05:22:54;;;;;;;7.72;2.97;;;;;;;21.40;65.89;96278.53;5075785;28;20627;-76
2022/07/20 05:25:20;;;;;;;7.40;3.33;;;;;;;21.60;65.08;96277.44;5078674;28;20543;-77
2022/07/20 05:27:46;;;;;;;9.55;2.92;;;;;;;21.37;66.94;96286.19;5035370;28;20110;-77
2022/07/20 05:30:12;;;;;;;8.18;3.65;;;;;;;21.59;66.79;96281.16;5042966;28;20032;-76
2022/07/20 05:32:37;;;;;;;8.30;3.38;;;;;;;21.94;64.36;96285.81;5088322;28;20596;-77
2022/07/20 05:35:04;;;;;;;10.60;3.60;;;;;;;22.03;63.99;96277.22;5056856;28;20039;-76
2022/07/20 05:37:30;;;;;;;10.20;3.28;;;;;;;21.68;63.71;96277.09;5052914;28;20114;-76
2022/07/20 05:39:56;;;;;;;14.38;4.10;;;;;;;21.74;64.69;96276.19;5066142;28;20494;-76
2022/07/20 05:42:22;;;;;;;8.88;3.55;;;;;;;21.85;63.31;96275.41;5045651;28;20103;-76
2022/07/20 05:44:47;;;;;;;10.07;3.25;;;;;;;22.39;62.86;96272.72;5061149;28;20734;-76
2022/07/20 05:47:13;;;;;;;5.55;3.40;;;;;;;22.55;62.39;96281.94;5055234;28;20158;-76
2022/07/20 05:49:38;;;;;;;6.20;3.40;;;;;;;22.84;59.99;96277.47;5073371;28;20059;-76
2022/07/20 05:52:04;;;;;;;9.10;3.45;;;;;;;23.30;57.06;96276.56;5081054;28;20036;-76
2022/07/20 05:54:30;;;;;;;6.90;3.28;;;;;;;23.66;57.55;96276.44;5085222;28;20040;-76
2022/07/20 05:56:56;;;;;;;14.65;9.43;;;;;;;24.10;53.61;96274.78;5076239;28;20032;-76
2022/07/20 05:59:21;;;;;;;35.95;27.52;;;;;;;24.35;52.76;96282.47;5069658;28;20047;-77
2022/07/20 06:01:47;;;;;;;7.78;3.72;;;;;;;24.36;51.81;96280.59;5058655;28;20028;-77
2022/07/20 06:04:14;;;;;;;7.55;3.67;;;;;;;24.78;52.60;96280.13;5077085;28;20032;-76
2022/07/20 06:06:40;;;;;;;6.40;3.00;;;;;;;24.69;52.20;96288.66;5072301;28;20036;-76
2022/07/20 06:09:06;;;;;;;6.90;3.72;;;;;;;24.86;52.05;96287.81;5050156;28;20123;-76
2022/07/20 06:11:33;;;;;;;8.23;3.78;;;;;;;25.32;51.32;96286.53;5055312;28;20046;-76
2022/07/20 06:14:00;;;;;;;5.93;3.05;;;;;;;25.11;50.84;96288.16;5073141;28;20073;-76
2022/07/20 06:16:26;;;;;;;9.45;3.40;;;;;;;25.00;52.14;96278.28;5053242;28;20036;-76
2022/07/20 06:18:52;;;;;;;6.28;2.85;;;;;;;25.34;51.03;96280.88;5070672;28;20065;-76
2022/07/20 06:21:18;;;;;;;5.82;2.88;;;;;;;25.42;49.14;96283.16;5079653;28;20036;-76
2022/07/20 06:23:44;;;;;;;9.45;3.55;;;;;;;25.62;50.00;96280.69;5078454;28;20419;-76
2022/07/20 06:26:09;;;;;;;9.43;3.30;;;;;;;26.01;48.65;96283.22;5050429;28;20032;-76
2022/07/20 06:28:35;;;;;;;11.93;3.00;;;;;;;26.27;46.82;96291.53;5081135;28;20027;-76
2022/07/20 06:31:01;;;;;;;6.40;2.97;;;;;;;25.55;47.88;96287.31;5063413;28;20036;-76
2022/07/20 06:33:27;;;;;;;9.73;3.00;;;;;;;25.99;45.12;96290.75;5059710;28;20063;-76
2022/07/20 06:35:52;;;;;;;8.57;3.00;;;;;;;26.00;45.58;96284.31;5056137;28;20095;-76
2022/07/20 06:38:18;;;;;;;5.65;2.58;;;;;;;26.25;45.38;96293.66;5051768;28;20544;-76
2022/07/20 06:40:44;;;;;;;5.25;3.25;;;;;;;26.03;44.98;96297.25;5049245;28;20021;-76
2022/07/20 06:43:10;;;;;;;7.10;2.97;;;;;;;26.14;45.42;96287.38;5049379;28;20045;-76
2022/07/20 06:45:36;;;;;;;7.35;3.63;;;;;;;26.31;44.28;96287.25;5055780;28;20032;-76
2022/07/20 06:48:03;;;;;;;6.22;2.63;;;;;;;26.52;44.06;96291.75;5089109;28;20040;-76
2022/07/20 06:50:28;;;;;;;7.85;3.05;;;;;;;26.87;43.57;96290.34;5069537;28;20020;-76
2022/07/20 06:52:54;;;;;;;7.13;3.17;;;;;;;26.85;43.75;96297.88;5057004;28;20104;-76
2022/07/20 06:55:20;;;;;;;6.55;3.17;;;;;;;27.24;41.82;96284.09;5071824;28;20020;-76
2022/07/20 06:57:46;;;;;;;12.85;4.07;;;;;;;27.63;42.24;96286.34;5068565;28;20393;-76
2022/07/20 07:00:12;;;;;;;6.28;3.00;;;;;;;27.25;41.97;96288.41;5077074;28;20043;-77
2022/07/20 07:02:38;;;;;;;8.38;3.45;;;;;;;26.95;43.52;96291.75;5077143;28;20039;-76
2022/07/20 07:05:05;;;;;;;6.72;3.17;;;;;;;27.57;41.74;96296.38;5066998;28;20111;-76
2022/07/20 07:07:30;;;;;;;6.03;3.17;;;;;;;28.03;40.83;96287.53;5055455;28;20055;-76
2022/07/20 07:09:56;;;;;;;7.22;3.40;;;;;;;28.30;40.34;96290.78;5056609;28;20036;-76
2022/07/20 07:12:22;;;;;;;10.63;3.85;;;;;;;27.63;40.91;96292.59;5056431;28;20472;-76
2022/07/20 07:14:47;;;;;;;5.28;3.15;;;;;;;28.32;40.17;96287.84;5084248;28;20541;-76
2022/07/20 07:17:13;;;;;;;6.93;3.13;;;;;;;28.79;38.67;96289.44;5083190;28;20051;-77
2022/07/20 07:19:40;;;;;;;6.05;3.33;;;;;;;28.39;39.52;96286.50;5083749;28;20535;-76
2022/07/20 07:22:05;;;;;;;5.85;3.03;;;;;;;29.02;39.03;96285.34;5057239;28;20056;-77
2022/07/20 07:24:31;;;;;;;6.43;3.22;;;;;;;29.33;37.76;96280.63;5070185;28;20090;-76
2022/07/20 07:26:57;;;;;;;10.05;3.40;;;;;;;29.55;37.17;96288.41;5052649;28;20091;-76
2022/07/20 07:29:23;;;;;;;4.95;3.17;;;;;;;29.88;37.38;96286.88;5073090;28;20118;-76
2022/07/20 07:31:49;;;;;;;7.68;3.33;;;;;;;29.52;38.00;96287.03;5082814;28;20039;-77
2022/07/20 07:34:15;;;;;;;7.70;3.45;;;;;;;29.28;37.84;96284.19;5082100;28;20036;-76
2022/07/20 07:36:41;;;;;;;6.60;3.53;;;;;;;29.91;36.78;96282.78;5057043;28;20123;-77
2022/07/20 07:39:06;;;;;;;5.30;3.08;;;;;;;29.98;36.90;96281.38;5082853;28;20116;-77
2022/07/20 07:41:32;;;;;;;5.93;3.25;;;;;;;30.56;35.93;96277.16;5069310;28;20043;-76
2022/07/20 07:43:58;;;;;;;6.10;3.50;;;;;;;30.39;35.97;96275.66;5065750;28;20041;-77
2022/07/20 07:46:24;;;;;;;8.02;3.50;;;;;;;31.04;34.67;96286.19;5054608;28;20558;-77
2022/07/20 07:48:50;;;;;;;8.18;4.00;;;;;;;31.53;33.87;96279.63;5082518;28;20121;-77
2022/07/20 07:51:16;;;;;;;8.43;3.60;;;;;;;31.95;33.04;96277.97;5076874;28;20103;-77
2022/07/20 07:53:42;;;;;;;7.75;3.63;;;;;;;31.73;33.31;96280.47;5070806;28;20402;-77
2022/07/20 07:56:07;;;;;;;9.88;4.38;;;;;;;31.82;33.83;96284.13;5074395;28;20074;-77
2022/07/20 07:58:33;;;;;;;6.85;3.55;;;;;;;32.31;33.20;96283.69;5081719;28;20525;-77
2022/07/20 08:00:59;;;;;;;10.48;4.45;;;;;;;32.30;33.85;96283.97;5075332;28;20037;-77
2022/07/20 08:03:25;;;;;;;8.20;4.05;;;;;;;31.33;34.23;96285.34;5036153;28;20045;-77
2022/07/20 08:05:50;;;;;;;19.70;4.78;;;;;;;32.34;33.19;96290.44;5052160;28;20112;-77
2022/07/20 08:08:16;;;;;;;37.25;8.48;;;;;;;32.65;32.14;96279.06;5082851;28;20062;-77
2022/07/20 08:10:43;;;;;;;8.13;3.90;;;;;;;33.96;31.02;96280.25;5078034;28;20037;-77
2022/07/20 08:13:10;;;;;;;9.77;4.25;;;;;;;34.28;29.67;96281.19;5052792;28;20039;-77
2022/07/20 08:15:37;;;;;;;12.18;3.40;;;;;;;34.51;29.57;96284.72;5052958;28;20040;-77
2022/07/20 08:18:03;;;;;;;8.57;4.13;;;;;;;33.89;29.78;96292.69;5026303;28;1228392;-77
2022/07/20 08:20:29;;;;;;;5.72;3.60;;;;;;;35.05;29.53;96279.25;5073076;28;20035;-77
2022/07/20 08:22:55;;;;;;;10.68;3.55;;;;;;;35.57;28.25;96284.91;5037559;28;20033;-77
2022/07/20 08:25:22;;;;;;;9.27;3.72;;;;;;;35.73;27.91;96275.09;5082238;28;20028;-77
2022/07/20 08:27:48;;;;;;;8.07;3.63;;;;;;;35.16;28.05;96277.84;5060683;28;20552;-77
2022/07/20 08:30:15;;;;;;;9.90;3.78;;;;;;;35.48;28.07;96278.56;5072786;28;20480;-77
2022/07/20 08:32:41;;;;;;;6.85;3.38;;;;;;;36.84;26.49;96271.81;5074678;28;20032;-77
2022/07/20 08:35:07;;;;;;;7.53;3.63;;;;;;;37.05;26.46;96274.66;5083871;28;20102;-77
2022/07/20 08:37:33;;;;;;;6.20;3.05;;;;;;;36.13;27.92;96280.47;5061779;28;20035;-75
2022/07/20 08:39:58;;;;;;;16.10;4.85;;;;;;;35.73;29.08;96283.31;5054010;28;20016;-78
2022/07/20 08:42:24;;;;;;;129.20;28.85;;;;;;;36.32;29.02;96274.66;5065592;28;20059;-78
2022/07/20 08:44:50;;;;;;;90.85;17.88;;;;;;;37.72;26.53;96278.53;5059533;28;20097;-78
2022/07/20 08:47:16;;;;;;;13.75;4.30;;;;;;;37.31;27.65;96273.75;5065495;28;20138;-78
2022/07/20 08:49:49;;;;;;;9.50;3.72;;;;;;;37.47;25.94;96281.09;5092336;28;20501;-78
2022/07/20 08:52:16;;;;;;;6.93;3.40;;;;;;;37.88;25.82;96285.03;5039830;28;20040;-75
2022/07/20 08:54:42;;;;;;;11.00;3.88;;;;;;;38.03;24.22;96280.09;5053628;28;20492;-75
2022/07/20 08:57:15;;;;;;;5.55;3.15;;;;;;;36.97;25.32;96284.53;5037089;28;20036;-75
2022/07/20 08:59:45;;;;;;;8.40;3.50;;;;;;;38.10;24.29;96281.19;5066467;28;20036;-75
2022/07/20 09:02:11;;;;;;;5.88;3.45;;;;;;;38.26;24.87;96284.09;5064861;28;20037;-75
2022/07/20 09:04:54;;;;;;;8.07;3.70;;;;;;;37.02;25.97;96297.25;5071700;28;20091;-75
2022/07/20 09:07:46;;;;;;;7.50;3.92;;;;;;;37.77;24.18;96291.25;5053308;28;20377;-75
2022/07/20 09:10:25;;;;;;;8.32;3.70;;;;;;;37.56;25.53;96288.47;5071547;28;20032;-75
2022/07/20 09:12:53;;;;;;;6.90;3.72;;;;;;;38.46;24.20;96290.72;5053390;28;20036;-76
2022/07/20 09:15:32;;;;;;;5.53;3.47;;;;;;;38.11;23.94;96288.28;5069889;28;20203;-76
2022/07/20 09:18:10;;;;;;;6.75;3.42;;;;;;;37.22;25.26;96284.75;5033356;28;20086;-76
2022/07/20 09:20:41;;;;;;;8.85;3.53;;;;;;;38.01;25.08;96279.66;5050191;28;20056;-76
2022/07/20 09:23:13;;;;;;;11.90;3.95;;;;;;;38.41;24.46;96290.97;5045136;28;20032;-76
2022/07/20 09:25:53;;;;;;;9.90;3.85;;;;;;;38.73;23.73;96283.81;5051254;28;20029;-76
2022/07/20 09:28:19;;;;;;;8.95;4.00;;;;;;;38.68;23.98;96286.81;5087447;28;20078;-75
2022/07/20 09:30:53;;;;;;;5.82;3.20;;;;;;;38.03;23.52;96294.66;5073030;28;20139;-76
2022/07/20 09:33:30;;;;;;;9.30;4.35;;;;;;;38.31;23.67;96286.66;5056673;28;20047;-75
2022/07/20 09:36:00;;;;;;;7.60;3.83;;;;;;;38.31;23.65;96286.66;5073096;28;20044;-76
2022/07/20 09:38:38;;;;;;;6.80;3.67;;;;;;;39.45;23.32;96287.06;5071568;28;20397;-75
2022/07/20 09:41:19;;;;;;;8.23;3.88;;;;;;;38.11;23.21;96282.78;5078589;28;20040;-76
2022/07/20 09:43:45;;;;;;;6.43;3.45;;;;;;;39.53;22.48;96277.06;5090426;28;20028;-75
2022/07/20 09:46:18;;;;;;;6.32;4.00;;;;;;;39.68;22.62;96272.81;5072142;28;20761;-77
2022/07/20 09:48:48;;;;;;;6.85;3.75;;;;;;;40.35;20.63;96276.00;5052455;28;20041;-76
2022/07/20 09:51:29;;;;;;;5.53;3.20;;;;;;;39.38;22.33;96281.34;5051057;28;20048;-76
2022/07/20 09:53:58;;;;;;;8.02;3.70;;;;;;;40.22;21.23;96283.53;5056312;28;20032;-76
2022/07/20 09:56:25;;;;;;;6.95;3.35;;;;;;;39.82;21.95;96279.56;5090772;28;20123;-76
2022/07/20 09:58:53;;;;;;;5.65;3.10;;;;;;;39.35;21.83;96287.53;5090634;28;20034;-76
2022/07/20 10:01:27;;;;;;;6.95;4.15;;;;;;;40.14;21.07;96287.97;5087530;28;20485;-76
2022/07/20 10:03:55;;;;;;;6.60;3.80;;;;;;;40.16;20.40;96285.72;5084633;28;20028;-76
2022/07/20 10:06:23;;;;;;;6.22;3.60;;;;;;;39.90;20.75;96277.03;5046963;28;20024;-77
2022/07/20 10:08:49;;;;;;;5.63;3.25;;;;;;;40.37;20.00;96280.00;5057778;28;20510;-76
2022/07/20 10:11:16;;;;;;;4.70;3.30;;;;;;;40.09;20.33;96285.47;5087079;28;20032;-76
2022/07/20 10:13:43;;;;;;;6.95;4.13;;;;;;;40.35;20.77;96281.53;5089821;28;20035;-76
2022/07/20 10:16:34;;;;;;;21.33;15.73;;;;;;;40.56;20.33;96282.09;5058106;28;20036;-76
2022/07/20 10:19:00;;;;;;;7.38;4.30;;;;;;;41.55;18.71;96274.00;5081230;28;20048;-76
2022/07/20 10:21:49;;;;;;;8.30;5.75;;;;;;;40.27;20.09;96280.50;5070387;28;20025;-76
2022/07/20 10:24:19;;;;;;;7.32;3.42;;;;;;;41.13;19.46;96271.81;5034794;28;20485;-76
2022/07/20 10:26:54;;;;;;;7.03;3.50;;;;;;;41.17;19.24;96275.44;5082505;28;20114;-76
2022/07/20 10:29:35;;;;;;;5.20;3.33;;;;;;;41.48;19.60;96265.56;5088392;28;20064;-76
2022/07/20 10:32:10;;;;;;;6.07;3.60;;;;;;;40.45;19.53;96278.25;5074089;28;20430;-76
2022/07/20 10:34:40;;;;;;;5.80;3.65;;;;;;;41.52;19.69;96270.00;5068598;28;20035;-76
2022/07/20 10:37:23;;;;;;;6.70;3.78;;;;;;;41.16;19.87;96276.59;5067439;28;20039;-76
2022/07/20 10:39:51;;;;;;;7.63;4.32;;;;;;;40.99;19.32;96267.50;5066301;28;20042;-76
2022/07/20 10:42:33;;;;;;;8.45;3.90;;;;;;;41.70;18.08;96262.13;5079161;28;20124;-76
2022/07/20 10:45:17;;;;;;;12.63;3.72;;;;;;;42.35;18.24;96265.09;5089813;28;20485;-76
2022/07/20 10:48:18;;;;;;;7.45;3.88;;;;;;;41.20;19.34;96263.69;5049368;28;20448;-76
2022/07/20 10:50:54;;;;;;;7.78;3.70;;;;;;;41.24;19.72;96264.56;5029347;28;20032;-76
2022/07/20 10:53:23;;;;;;;6.63;3.78;;;;;;;41.54;19.26;96258.59;5055061;28;20036;-76
2022/07/20 10:55:55;;;;;;;7.18;4.53;;;;;;;41.24;20.21;96261.81;5071215;28;20552;-76
2022/07/20 10:58:29;;;;;;;9.23;4.00;;;;;;;41.55;19.46;96257.44;5055192;28;20039;-76
2022/07/20 11:01:02;;;;;;;9.15;3.97;;;;;;;41.67;18.03;96251.78;5074819;28;20033;-76
2022/07/20 11:03:30;;;;;;;6.00;3.72;;;;;;;41.31;18.45;96245.41;5069419;28;20040;-76
2022/07/20 11:06:00;;;;;;;8.32;5.65;;;;;;;41.12;18.13;96257.22;5051055;28;20136;-76
2022/07/20 11:08:26;;;;;;;12.05;7.00;;;;;;;42.42;16.96;96247.06;5069148;28;20035;-76
2022/07/20 11:10:52;;;;;;;12.05;4.32;;;;;;;41.80;18.13;96247.75;5065244;28;20043;-76
2022/07/20 11:13:18;;;;;;;6.53;4.28;;;;;;;42.10;17.93;96241.69;5071179;28;20040;-76
2022/07/20 11:15:44;;;;;;;6.65;3.75;;;;;;;42.62;18.07;96240.31;5041172;28;20020;-76
2022/07/20 11:18:11;;;;;;;8.25;3.92;;;;;;;42.52;17.21;96240.94;5050923;28;20128;-76
2022/07/20 11:20:45;;;;;;;7.32;3.90;;;;;;;42.71;17.79;96231.84;5051232;28;20681;-76
2022/07/20 11:23:10;;;;;;;7.03;4.10;;;;;;;40.42;18.84;96232.91;5068818;28;20554;-76
2022/07/20 11:25:50;;;;;;;5.78;3.75;;;;;;;42.30;18.03;96229.47;5034570;28;20040;-76
2022/07/20 11:28:18;;;;;;;6.75;3.67;;;;;;;41.85;19.06;96228.16;5043884;28;20078;-76
2022/07/20 11:30:43;;;;;;;6.97;3.88;;;;;;;41.85;17.67;96224.56;5066743;28;20103;-76
2022/07/20 11:33:10;;;;;;;10.18;4.22;;;;;;;42.02;17.53;96223.34;5034919;28;20136;-76
2022/07/20 11:35:38;;;;;;;8.55;4.80;;;;;;;42.07;17.14;96215.56;5072534;28;20399;-77
2022/07/20 11:38:04;;;;;;;5.70;3.88;;;;;;;42.13;18.00;96222.41;5088151;28;20039;-76